sensor_id;sensor_type;location;lat;lon;timestamp;P1;durP1;ratioP1;P2;durP2;ratioP2
10174;SDS011;18221;38.704;0.152;2023-04-15T00:04:57;1.93;;;1.03;;
10174;SDS011;18221;38.704;0.152;2023-04-15T00:07:26;3.37;;;1.30;;
10174;SDS011;18221;38.704;0.152;2023-04-15T00:09:56;3.63;;;1.20;;
10174;SDS011;18221;38.704;0.152;2023-04-15T00:12:26;2.30;;;1.00;;
10174;SDS011;18221;38.704;0.152;2023-04-15T00:14:55;4.40;;;0.90;;
10174;SDS011;18221;38.704;0.152;2023-04-15T00:17:24;2.17;;;0.90;;
10174;SDS011;18221;38.704;0.152;2023-04-15T00:19:53;4.23;;;0.90;;
10174;SDS011;18221;38.704;0.152;2023-04-15T00:22:23;3.30;;;1.03;;
10174;SDS011;18221;38.704;0.152;2023-04-15T00:24:52;1.63;;;0.90;;
10174;SDS011;18221;38.704;0.152;2023-04-15T00:27:20;1.40;;;0.90;;
10174;SDS011;18221;38.704;0.152;2023-04-15T00:29:49;3.30;;;1.00;;
10174;SDS011;18221;38.704;0.152;2023-04-15T00:32:18;3.67;;;1.20;;
10174;SDS011;18221;38.704;0.152;2023-04-15T00:34:47;2.33;;;0.90;;
10174;SDS011;18221;38.704;0.152;2023-04-15T00:37:16;4.07;;;0.80;;
10174;SDS011;18221;38.704;0.152;2023-04-15T00:39:47;5.40;;;1.10;;
10174;SDS011;18221;38.704;0.152;2023-04-15T00:42:16;1.90;;;0.90;;
10174;SDS011;18221;38.704;0.152;2023-04-15T00:44:47;1.73;;;1.10;;
10174;SDS011;18221;38.704;0.152;2023-04-15T00:47:16;1.63;;;0.97;;
10174;SDS011;18221;38.704;0.152;2023-04-15T00:49:47;2.53;;;0.97;;
10174;SDS011;18221;38.704;0.152;2023-04-15T00:52:16;4.53;;;1.27;;
10174;SDS011;18221;38.704;0.152;2023-04-15T00:54:47;1.43;;;0.83;;
10174;SDS011;18221;38.704;0.152;2023-04-15T00:57:16;2.97;;;1.10;;
10174;SDS011;18221;38.704;0.152;2023-04-15T00:59:47;1.73;;;0.90;;
10174;SDS011;18221;38.704;0.152;2023-04-15T01:02:17;3.27;;;1.17;;
10174;SDS011;18221;38.704;0.152;2023-04-15T01:04:46;1.90;;;1.00;;
10174;SDS011;18221;38.704;0.152;2023-04-15T01:07:16;3.87;;;1.10;;
10174;SDS011;18221;38.704;0.152;2023-04-15T01:09:46;2.30;;;1.00;;
10174;SDS011;18221;38.704;0.152;2023-04-15T01:12:16;5.30;;;1.10;;
10174;SDS011;18221;38.704;0.152;2023-04-15T01:14:46;3.73;;;1.10;;
10174;SDS011;18221;38.704;0.152;2023-04-15T01:17:15;1.70;;;1.03;;
10174;SDS011;18221;38.704;0.152;2023-04-15T01:19:43;6.23;;;1.20;;
10174;SDS011;18221;38.704;0.152;2023-04-15T01:22:12;1.70;;;0.93;;
10174;SDS011;18221;38.704;0.152;2023-04-15T01:24:42;3.07;;;1.10;;
10174;SDS011;18221;38.704;0.152;2023-04-15T01:27:23;3.00;;;1.17;;
10174;SDS011;18221;38.704;0.152;2023-04-15T01:29:52;2.13;;;1.00;;
10174;SDS011;18221;38.704;0.152;2023-04-15T01:32:21;1.67;;;1.00;;
10174;SDS011;18221;38.704;0.152;2023-04-15T01:34:50;1.23;;;0.90;;
10174;SDS011;18221;38.704;0.152;2023-04-15T01:37:19;2.57;;;1.00;;
10174;SDS011;18221;38.704;0.152;2023-04-15T01:39:47;3.17;;;1.20;;
10174;SDS011;18221;38.704;0.152;2023-04-15T01:42:16;5.33;;;1.10;;
10174;SDS011;18221;38.704;0.152;2023-04-15T01:44:46;1.00;;;0.90;;
10174;SDS011;18221;38.704;0.152;2023-04-15T01:47:15;3.67;;;1.00;;
10174;SDS011;18221;38.704;0.152;2023-04-15T01:49:44;3.00;;;1.13;;
10174;SDS011;18221;38.704;0.152;2023-04-15T01:52:12;2.10;;;1.00;;
10174;SDS011;18221;38.704;0.152;2023-04-15T01:54:41;2.20;;;1.10;;
10174;SDS011;18221;38.704;0.152;2023-04-15T01:57:11;5.07;;;1.40;;
10174;SDS011;18221;38.704;0.152;2023-04-15T01:59:40;2.33;;;1.10;;
10174;SDS011;18221;38.704;0.152;2023-04-15T02:02:10;3.23;;;1.13;;
10174;SDS011;18221;38.704;0.152;2023-04-15T02:04:39;2.00;;;1.03;;
10174;SDS011;18221;38.704;0.152;2023-04-15T02:07:09;1.97;;;0.93;;
10174;SDS011;18221;38.704;0.152;2023-04-15T02:09:38;6.87;;;1.40;;
10174;SDS011;18221;38.704;0.152;2023-04-15T02:12:08;2.30;;;1.13;;
10174;SDS011;18221;38.704;0.152;2023-04-15T02:14:37;1.10;;;0.87;;
10174;SDS011;18221;38.704;0.152;2023-04-15T02:17:06;4.57;;;1.20;;
10174;SDS011;18221;38.704;0.152;2023-04-15T02:19:36;2.57;;;1.17;;
10174;SDS011;18221;38.704;0.152;2023-04-15T02:22:05;4.47;;;1.20;;
10174;SDS011;18221;38.704;0.152;2023-04-15T02:24:35;3.20;;;1.30;;
10174;SDS011;18221;38.704;0.152;2023-04-15T02:27:04;4.97;;;1.10;;
10174;SDS011;18221;38.704;0.152;2023-04-15T02:29:33;2.33;;;1.10;;
10174;SDS011;18221;38.704;0.152;2023-04-15T02:32:02;2.93;;;1.20;;
10174;SDS011;18221;38.704;0.152;2023-04-15T02:34:31;6.63;;;1.50;;
10174;SDS011;18221;38.704;0.152;2023-04-15T02:37:02;9.27;;;1.40;;
10174;SDS011;18221;38.704;0.152;2023-04-15T02:39:31;4.17;;;1.20;;
10174;SDS011;18221;38.704;0.152;2023-04-15T02:41:59;2.53;;;1.30;;
10174;SDS011;18221;38.704;0.152;2023-04-15T02:44:29;3.43;;;1.00;;
10174;SDS011;18221;38.704;0.152;2023-04-15T02:46:59;4.13;;;1.17;;
10174;SDS011;18221;38.704;0.152;2023-04-15T02:49:29;4.00;;;1.30;;
10174;SDS011;18221;38.704;0.152;2023-04-15T02:51:58;3.50;;;1.23;;
10174;SDS011;18221;38.704;0.152;2023-04-15T02:54:28;2.53;;;1.00;;
10174;SDS011;18221;38.704;0.152;2023-04-15T02:56:58;3.77;;;1.30;;
10174;SDS011;18221;38.704;0.152;2023-04-15T02:59:27;1.87;;;1.17;;
10174;SDS011;18221;38.704;0.152;2023-04-15T03:01:55;7.07;;;1.20;;
10174;SDS011;18221;38.704;0.152;2023-04-15T03:04:25;3.53;;;1.20;;
10174;SDS011;18221;38.704;0.152;2023-04-15T03:06:55;6.70;;;1.30;;
10174;SDS011;18221;38.704;0.152;2023-04-15T03:09:23;2.20;;;1.17;;
10174;SDS011;18221;38.704;0.152;2023-04-15T03:11:53;3.70;;;1.30;;
10174;SDS011;18221;38.704;0.152;2023-04-15T03:14:23;3.63;;;1.30;;
10174;SDS011;18221;38.704;0.152;2023-04-15T03:16:52;2.67;;;1.37;;
10174;SDS011;18221;38.704;0.152;2023-04-15T03:19:21;2.27;;;1.30;;
10174;SDS011;18221;38.704;0.152;2023-04-15T03:21:50;1.80;;;1.03;;
10174;SDS011;18221;38.704;0.152;2023-04-15T03:24:19;4.00;;;1.50;;
10174;SDS011;18221;38.704;0.152;2023-04-15T03:26:47;2.23;;;1.10;;
10174;SDS011;18221;38.704;0.152;2023-04-15T03:29:18;3.27;;;1.40;;
10174;SDS011;18221;38.704;0.152;2023-04-15T03:31:47;1.73;;;1.20;;
10174;SDS011;18221;38.704;0.152;2023-04-15T03:34:16;3.83;;;1.20;;
10174;SDS011;18221;38.704;0.152;2023-04-15T03:36:44;2.90;;;1.20;;
10174;SDS011;18221;38.704;0.152;2023-04-15T03:39:13;3.83;;;1.40;;
10174;SDS011;18221;38.704;0.152;2023-04-15T03:41:42;2.57;;;1.10;;
10174;SDS011;18221;38.704;0.152;2023-04-15T03:44:11;3.40;;;1.40;;
10174;SDS011;18221;38.704;0.152;2023-04-15T03:46:41;4.90;;;1.23;;
10174;SDS011;18221;38.704;0.152;2023-04-15T03:49:10;3.27;;;1.20;;
10174;SDS011;18221;38.704;0.152;2023-04-15T03:51:40;3.50;;;1.30;;
10174;SDS011;18221;38.704;0.152;2023-04-15T03:54:09;5.37;;;1.53;;
10174;SDS011;18221;38.704;0.152;2023-04-15T03:56:39;5.13;;;1.30;;
10174;SDS011;18221;38.704;0.152;2023-04-15T03:59:08;2.47;;;1.20;;
10174;SDS011;18221;38.704;0.152;2023-04-15T04:01:37;3.73;;;1.10;;
10174;SDS011;18221;38.704;0.152;2023-04-15T04:04:08;2.07;;;1.20;;
10174;SDS011;18221;38.704;0.152;2023-04-15T04:06:37;4.53;;;1.53;;
10174;SDS011;18221;38.704;0.152;2023-04-15T04:09:05;6.00;;;1.50;;
10174;SDS011;18221;38.704;0.152;2023-04-15T04:11:35;5.30;;;1.30;;
10174;SDS011;18221;38.704;0.152;2023-04-15T04:14:03;3.30;;;1.60;;
10174;SDS011;18221;38.704;0.152;2023-04-15T04:16:32;4.23;;;1.60;;
10174;SDS011;18221;38.704;0.152;2023-04-15T04:19:01;3.70;;;1.40;;
10174;SDS011;18221;38.704;0.152;2023-04-15T04:21:31;2.70;;;1.13;;
10174;SDS011;18221;38.704;0.152;2023-04-15T04:24:00;4.80;;;1.20;;
10174;SDS011;18221;38.704;0.152;2023-04-15T04:26:29;2.43;;;1.23;;
10174;SDS011;18221;38.704;0.152;2023-04-15T04:28:58;3.00;;;1.30;;
10174;SDS011;18221;38.704;0.152;2023-04-15T04:31:27;4.20;;;1.50;;
10174;SDS011;18221;38.704;0.152;2023-04-15T04:33:56;3.33;;;1.30;;
10174;SDS011;18221;38.704;0.152;2023-04-15T04:36:25;5.07;;;1.30;;
10174;SDS011;18221;38.704;0.152;2023-04-15T04:38:55;6.37;;;1.80;;
10174;SDS011;18221;38.704;0.152;2023-04-15T04:41:24;5.00;;;1.30;;
10174;SDS011;18221;38.704;0.152;2023-04-15T04:43:53;2.47;;;1.30;;
10174;SDS011;18221;38.704;0.152;2023-04-15T04:46:22;8.77;;;1.57;;
10174;SDS011;18221;38.704;0.152;2023-04-15T04:48:50;2.10;;;1.20;;
10174;SDS011;18221;38.704;0.152;2023-04-15T04:51:19;3.57;;;1.20;;
10174;SDS011;18221;38.704;0.152;2023-04-15T04:53:47;3.10;;;1.20;;
10174;SDS011;18221;38.704;0.152;2023-04-15T04:56:17;2.93;;;1.00;;
10174;SDS011;18221;38.704;0.152;2023-04-15T04:58:46;3.70;;;1.30;;
10174;SDS011;18221;38.704;0.152;2023-04-15T05:01:15;3.23;;;1.40;;
10174;SDS011;18221;38.704;0.152;2023-04-15T05:03:44;2.03;;;1.10;;
10174;SDS011;18221;38.704;0.152;2023-04-15T05:06:13;4.10;;;1.40;;
10174;SDS011;18221;38.704;0.152;2023-04-15T05:08:41;6.23;;;1.53;;
10174;SDS011;18221;38.704;0.152;2023-04-15T05:11:13;3.73;;;1.47;;
10174;SDS011;18221;38.704;0.152;2023-04-15T05:13:43;2.93;;;1.30;;
10174;SDS011;18221;38.704;0.152;2023-04-15T05:16:14;3.10;;;1.10;;
10174;SDS011;18221;38.704;0.152;2023-04-15T05:18:44;7.00;;;1.60;;
10174;SDS011;18221;38.704;0.152;2023-04-15T05:21:12;3.40;;;1.20;;
10174;SDS011;18221;38.704;0.152;2023-04-15T05:23:41;2.50;;;1.17;;
10174;SDS011;18221;38.704;0.152;2023-04-15T05:26:10;3.57;;;1.20;;
10174;SDS011;18221;38.704;0.152;2023-04-15T05:28:39;3.37;;;1.40;;
10174;SDS011;18221;38.704;0.152;2023-04-15T05:31:09;4.50;;;1.47;;
10174;SDS011;18221;38.704;0.152;2023-04-15T05:33:38;4.40;;;1.30;;
10174;SDS011;18221;38.704;0.152;2023-04-15T05:36:07;4.83;;;1.47;;
10174;SDS011;18221;38.704;0.152;2023-04-15T05:38:37;3.90;;;1.67;;
10174;SDS011;18221;38.704;0.152;2023-04-15T05:41:06;6.70;;;1.60;;
10174;SDS011;18221;38.704;0.152;2023-04-15T05:43:36;4.63;;;1.30;;
10174;SDS011;18221;38.704;0.152;2023-04-15T05:46:15;5.03;;;1.50;;
10174;SDS011;18221;38.704;0.152;2023-04-15T05:48:44;4.83;;;1.40;;
10174;SDS011;18221;38.704;0.152;2023-04-15T05:51:15;3.63;;;1.33;;
10174;SDS011;18221;38.704;0.152;2023-04-15T05:53:44;4.60;;;1.30;;
10174;SDS011;18221;38.704;0.152;2023-04-15T05:56:13;3.57;;;1.30;;
10174;SDS011;18221;38.704;0.152;2023-04-15T05:58:42;2.77;;;1.30;;
10174;SDS011;18221;38.704;0.152;2023-04-15T06:01:10;5.47;;;1.47;;
10174;SDS011;18221;38.704;0.152;2023-04-15T06:03:41;5.77;;;1.50;;
10174;SDS011;18221;38.704;0.152;2023-04-15T06:06:10;4.83;;;1.30;;
10174;SDS011;18221;38.704;0.152;2023-04-15T06:08:39;3.73;;;1.30;;
10174;SDS011;18221;38.704;0.152;2023-04-15T06:11:09;3.23;;;1.47;;
10174;SDS011;18221;38.704;0.152;2023-04-15T06:13:37;4.70;;;1.40;;
10174;SDS011;18221;38.704;0.152;2023-04-15T06:16:06;4.23;;;1.57;;
10174;SDS011;18221;38.704;0.152;2023-04-15T06:18:36;9.83;;;1.67;;
10174;SDS011;18221;38.704;0.152;2023-04-15T06:21:06;11.83;;;2.00;;
10174;SDS011;18221;38.704;0.152;2023-04-15T06:23:35;7.90;;;1.80;;
10174;SDS011;18221;38.704;0.152;2023-04-15T06:26:05;11.23;;;1.73;;
10174;SDS011;18221;38.704;0.152;2023-04-15T06:29:04;7.30;;;1.70;;
10174;SDS011;18221;38.704;0.152;2023-04-15T06:31:33;5.57;;;1.67;;
10174;SDS011;18221;38.704;0.152;2023-04-15T06:34:02;11.13;;;2.03;;
10174;SDS011;18221;38.704;0.152;2023-04-15T06:36:32;10.37;;;1.70;;
10174;SDS011;18221;38.704;0.152;2023-04-15T06:39:01;7.70;;;1.90;;
10174;SDS011;18221;38.704;0.152;2023-04-15T06:41:30;14.87;;;2.00;;
10174;SDS011;18221;38.704;0.152;2023-04-15T06:44:02;10.80;;;1.70;;
10174;SDS011;18221;38.704;0.152;2023-04-15T06:46:33;8.90;;;1.87;;
10174;SDS011;18221;38.704;0.152;2023-04-15T06:49:02;6.60;;;1.97;;
10174;SDS011;18221;38.704;0.152;2023-04-15T06:51:33;6.73;;;1.90;;
10174;SDS011;18221;38.704;0.152;2023-04-15T06:54:02;9.27;;;1.97;;
10174;SDS011;18221;38.704;0.152;2023-04-15T06:56:32;9.87;;;1.60;;
10174;SDS011;18221;38.704;0.152;2023-04-15T06:59:00;10.37;;;1.70;;
10174;SDS011;18221;38.704;0.152;2023-04-15T07:01:29;4.50;;;1.40;;
10174;SDS011;18221;38.704;0.152;2023-04-15T07:03:58;8.73;;;1.60;;
10174;SDS011;18221;38.704;0.152;2023-04-15T07:06:27;6.37;;;1.50;;
10174;SDS011;18221;38.704;0.152;2023-04-15T07:08:57;9.53;;;1.90;;
10174;SDS011;18221;38.704;0.152;2023-04-15T07:11:26;8.17;;;1.90;;
10174;SDS011;18221;38.704;0.152;2023-04-15T07:13:56;5.43;;;1.43;;
10174;SDS011;18221;38.704;0.152;2023-04-15T07:16:25;11.10;;;1.80;;
10174;SDS011;18221;38.704;0.152;2023-04-15T07:18:53;6.17;;;1.70;;
10174;SDS011;18221;38.704;0.152;2023-04-15T07:21:22;6.47;;;1.40;;
10174;SDS011;18221;38.704;0.152;2023-04-15T07:23:52;10.57;;;1.67;;
10174;SDS011;18221;38.704;0.152;2023-04-15T07:26:22;9.33;;;1.73;;
10174;SDS011;18221;38.704;0.152;2023-04-15T07:28:51;10.63;;;1.80;;
10174;SDS011;18221;38.704;0.152;2023-04-15T07:31:22;6.50;;;1.43;;
10174;SDS011;18221;38.704;0.152;2023-04-15T07:33:52;9.77;;;1.70;;
10174;SDS011;18221;38.704;0.152;2023-04-15T07:36:21;6.40;;;1.40;;
10174;SDS011;18221;38.704;0.152;2023-04-15T07:38:49;10.63;;;1.93;;
10174;SDS011;18221;38.704;0.152;2023-04-15T07:41:19;22.03;;;2.10;;
10174;SDS011;18221;38.704;0.152;2023-04-15T07:43:50;10.30;;;1.90;;
10174;SDS011;18221;38.704;0.152;2023-04-15T07:46:20;10.07;;;1.67;;
10174;SDS011;18221;38.704;0.152;2023-04-15T07:48:49;6.43;;;1.50;;
10174;SDS011;18221;38.704;0.152;2023-04-15T07:51:18;7.70;;;1.53;;
10174;SDS011;18221;38.704;0.152;2023-04-15T07:53:50;8.77;;;1.77;;
10174;SDS011;18221;38.704;0.152;2023-04-15T07:56:19;11.07;;;2.27;;
10174;SDS011;18221;38.704;0.152;2023-04-15T07:58:49;14.27;;;2.10;;
10174;SDS011;18221;38.704;0.152;2023-04-15T08:01:18;5.00;;;1.80;;
10174;SDS011;18221;38.704;0.152;2023-04-15T08:03:47;5.33;;;1.53;;
10174;SDS011;18221;38.704;0.152;2023-04-15T08:06:16;6.57;;;1.50;;
10174;SDS011;18221;38.704;0.152;2023-04-15T08:08:45;6.47;;;1.30;;
10174;SDS011;18221;38.704;0.152;2023-04-15T08:11:13;6.97;;;1.60;;
10174;SDS011;18221;38.704;0.152;2023-04-15T08:13:44;4.97;;;1.80;;
10174;SDS011;18221;38.704;0.152;2023-04-15T08:16:17;8.77;;;1.70;;
10174;SDS011;18221;38.704;0.152;2023-04-15T08:18:49;7.87;;;1.50;;
10174;SDS011;18221;38.704;0.152;2023-04-15T08:21:20;2.60;;;1.50;;
10174;SDS011;18221;38.704;0.152;2023-04-15T08:23:50;3.70;;;1.40;;
10174;SDS011;18221;38.704;0.152;2023-04-15T08:26:19;8.23;;;1.57;;
10174;SDS011;18221;38.704;0.152;2023-04-15T08:28:50;4.17;;;1.40;;
10174;SDS011;18221;38.704;0.152;2023-04-15T08:31:19;6.07;;;1.50;;
10174;SDS011;18221;38.704;0.152;2023-04-15T08:33:47;2.47;;;1.30;;
10174;SDS011;18221;38.704;0.152;2023-04-15T08:36:18;5.97;;;1.70;;
10174;SDS011;18221;38.704;0.152;2023-04-15T08:38:47;9.77;;;1.73;;
10174;SDS011;18221;38.704;0.152;2023-04-15T08:41:19;7.50;;;1.70;;
10174;SDS011;18221;38.704;0.152;2023-04-15T08:43:55;6.60;;;1.90;;
10174;SDS011;18221;38.704;0.152;2023-04-15T08:46:27;4.60;;;1.50;;
10174;SDS011;18221;38.704;0.152;2023-04-15T08:48:59;6.50;;;1.90;;
10174;SDS011;18221;38.704;0.152;2023-04-15T08:51:31;6.00;;;1.63;;
10174;SDS011;18221;38.704;0.152;2023-04-15T08:54:00;6.20;;;1.50;;
10174;SDS011;18221;38.704;0.152;2023-04-15T08:56:30;6.27;;;1.60;;
10174;SDS011;18221;38.704;0.152;2023-04-15T08:59:03;4.53;;;1.30;;
10174;SDS011;18221;38.704;0.152;2023-04-15T09:01:31;4.47;;;1.60;;
10174;SDS011;18221;38.704;0.152;2023-04-15T09:04:01;9.07;;;1.90;;
10174;SDS011;18221;38.704;0.152;2023-04-15T09:06:32;7.10;;;1.50;;
10174;SDS011;18221;38.704;0.152;2023-04-15T09:09:01;6.53;;;1.97;;
10174;SDS011;18221;38.704;0.152;2023-04-15T09:11:29;6.93;;;2.17;;
10174;SDS011;18221;38.704;0.152;2023-04-15T09:13:58;6.33;;;2.10;;
10174;SDS011;18221;38.704;0.152;2023-04-15T09:16:28;7.67;;;2.10;;
10174;SDS011;18221;38.704;0.152;2023-04-15T09:18:57;7.27;;;2.03;;
10174;SDS011;18221;38.704;0.152;2023-04-15T09:21:26;9.10;;;2.00;;
10174;SDS011;18221;38.704;0.152;2023-04-15T09:23:58;8.80;;;2.17;;
10174;SDS011;18221;38.704;0.152;2023-04-15T09:26:31;8.00;;;2.00;;
10174;SDS011;18221;38.704;0.152;2023-04-15T09:29:05;9.83;;;2.40;;
10174;SDS011;18221;38.704;0.152;2023-04-15T09:31:39;4.40;;;1.90;;
10174;SDS011;18221;38.704;0.152;2023-04-15T09:34:08;6.40;;;1.80;;
10174;SDS011;18221;38.704;0.152;2023-04-15T09:36:52;8.97;;;2.43;;
10174;SDS011;18221;38.704;0.152;2023-04-15T09:39:22;5.00;;;1.83;;
10174;SDS011;18221;38.704;0.152;2023-04-15T09:42:04;6.13;;;2.07;;
10174;SDS011;18221;38.704;0.152;2023-04-15T09:44:33;5.73;;;2.27;;
10174;SDS011;18221;38.704;0.152;2023-04-15T09:47:03;6.37;;;2.37;;
10174;SDS011;18221;38.704;0.152;2023-04-15T09:49:32;7.63;;;2.30;;
10174;SDS011;18221;38.704;0.152;2023-04-15T09:52:01;7.20;;;2.20;;
10174;SDS011;18221;38.704;0.152;2023-04-15T09:54:34;6.30;;;2.00;;
10174;SDS011;18221;38.704;0.152;2023-04-15T09:57:04;5.63;;;2.23;;
10174;SDS011;18221;38.704;0.152;2023-04-15T09:59:34;7.07;;;2.37;;
10174;SDS011;18221;38.704;0.152;2023-04-15T10:02:04;7.13;;;1.90;;
10174;SDS011;18221;38.704;0.152;2023-04-15T10:04:34;7.53;;;2.03;;
10174;SDS011;18221;38.704;0.152;2023-04-15T10:07:07;9.13;;;2.13;;
10174;SDS011;18221;38.704;0.152;2023-04-15T10:09:38;9.30;;;2.20;;
10174;SDS011;18221;38.704;0.152;2023-04-15T10:12:07;8.70;;;2.30;;
10174;SDS011;18221;38.704;0.152;2023-04-15T10:14:37;8.93;;;1.80;;
10174;SDS011;18221;38.704;0.152;2023-04-15T10:17:10;5.80;;;1.83;;
10174;SDS011;18221;38.704;0.152;2023-04-15T10:19:42;6.30;;;1.90;;
10174;SDS011;18221;38.704;0.152;2023-04-15T10:22:12;6.40;;;2.00;;
10174;SDS011;18221;38.704;0.152;2023-04-15T10:24:42;4.47;;;1.80;;
10174;SDS011;18221;38.704;0.152;2023-04-15T10:27:13;7.47;;;2.23;;
10174;SDS011;18221;38.704;0.152;2023-04-15T10:29:43;4.33;;;1.70;;
10174;SDS011;18221;38.704;0.152;2023-04-15T10:32:14;5.30;;;1.60;;
10174;SDS011;18221;38.704;0.152;2023-04-15T10:34:46;4.77;;;1.80;;
10174;SDS011;18221;38.704;0.152;2023-04-15T10:37:19;5.07;;;1.80;;
10174;SDS011;18221;38.704;0.152;2023-04-15T10:39:59;5.63;;;1.60;;
10174;SDS011;18221;38.704;0.152;2023-04-15T10:42:33;5.73;;;1.87;;
10174;SDS011;18221;38.704;0.152;2023-04-15T10:45:02;4.07;;;1.70;;
10174;SDS011;18221;38.704;0.152;2023-04-15T10:47:44;4.30;;;1.60;;
10174;SDS011;18221;38.704;0.152;2023-04-15T10:50:17;5.67;;;1.80;;
10174;SDS011;18221;38.704;0.152;2023-04-15T10:52:49;5.93;;;1.50;;
10174;SDS011;18221;38.704;0.152;2023-04-15T10:55:18;4.17;;;1.80;;
10174;SDS011;18221;38.704;0.152;2023-04-15T10:57:53;8.13;;;1.90;;
10174;SDS011;18221;38.704;0.152;2023-04-15T11:00:27;8.73;;;2.47;;
10174;SDS011;18221;38.704;0.152;2023-04-15T11:03:04;6.30;;;1.90;;
10174;SDS011;18221;38.704;0.152;2023-04-15T11:14:36;6.50;;;2.10;;
10174;SDS011;18221;38.704;0.152;2023-04-15T11:17:07;5.53;;;1.80;;
10174;SDS011;18221;38.704;0.152;2023-04-15T11:19:38;6.07;;;1.90;;
10174;SDS011;18221;38.704;0.152;2023-04-15T11:22:07;7.30;;;1.90;;
10174;SDS011;18221;38.704;0.152;2023-04-15T11:24:36;6.17;;;1.90;;
10174;SDS011;18221;38.704;0.152;2023-04-15T11:27:19;6.53;;;1.80;;
10174;SDS011;18221;38.704;0.152;2023-04-15T11:29:49;4.80;;;2.00;;
10174;SDS011;18221;38.704;0.152;2023-04-15T11:32:18;5.67;;;1.80;;
10174;SDS011;18221;38.704;0.152;2023-04-15T11:34:49;6.30;;;1.87;;
10174;SDS011;18221;38.704;0.152;2023-04-15T11:37:26;4.80;;;1.80;;
10174;SDS011;18221;38.704;0.152;2023-04-15T11:39:56;5.33;;;1.73;;
10174;SDS011;18221;38.704;0.152;2023-04-15T11:42:24;6.10;;;2.13;;
10174;SDS011;18221;38.704;0.152;2023-04-15T11:45:05;3.40;;;1.50;;
10174;SDS011;18221;38.704;0.152;2023-04-15T11:47:35;6.93;;;1.90;;
10174;SDS011;18221;38.704;0.152;2023-04-15T11:50:15;7.47;;;2.00;;
10174;SDS011;18221;38.704;0.152;2023-04-15T11:52:51;5.83;;;2.00;;
10174;SDS011;18221;38.704;0.152;2023-04-15T11:55:21;6.07;;;1.50;;
10174;SDS011;18221;38.704;0.152;2023-04-15T11:58:04;6.23;;;1.87;;
10174;SDS011;18221;38.704;0.152;2023-04-15T12:00:35;4.17;;;1.67;;
10174;SDS011;18221;38.704;0.152;2023-04-15T12:03:16;6.17;;;1.90;;
10174;SDS011;18221;38.704;0.152;2023-04-15T12:06:09;6.33;;;1.60;;
10174;SDS011;18221;38.704;0.152;2023-04-15T12:08:50;6.07;;;1.57;;
10174;SDS011;18221;38.704;0.152;2023-04-15T12:11:42;5.73;;;1.83;;
10174;SDS011;18221;38.704;0.152;2023-04-15T12:14:15;4.23;;;1.53;;
10174;SDS011;18221;38.704;0.152;2023-04-15T12:16:51;9.10;;;1.90;;
10174;SDS011;18221;38.704;0.152;2023-04-15T12:19:24;5.83;;;1.90;;
10174;SDS011;18221;38.704;0.152;2023-04-15T12:21:58;8.33;;;1.80;;
10174;SDS011;18221;38.704;0.152;2023-04-15T12:24:30;8.17;;;1.60;;
10174;SDS011;18221;38.704;0.152;2023-04-15T12:27:01;7.87;;;1.80;;
10174;SDS011;18221;38.704;0.152;2023-04-15T12:29:31;7.70;;;1.67;;
10174;SDS011;18221;38.704;0.152;2023-04-15T12:32:05;5.70;;;1.73;;
10174;SDS011;18221;38.704;0.152;2023-04-15T12:34:36;4.87;;;1.60;;
10174;SDS011;18221;38.704;0.152;2023-04-15T12:37:08;6.43;;;2.07;;
10174;SDS011;18221;38.704;0.152;2023-04-15T12:39:39;4.83;;;1.77;;
10174;SDS011;18221;38.704;0.152;2023-04-15T12:42:10;7.30;;;1.83;;
10174;SDS011;18221;38.704;0.152;2023-04-15T12:44:40;7.87;;;2.17;;
10174;SDS011;18221;38.704;0.152;2023-04-15T12:47:10;7.63;;;1.77;;
10174;SDS011;18221;38.704;0.152;2023-04-15T12:49:39;9.80;;;2.20;;
10174;SDS011;18221;38.704;0.152;2023-04-15T12:52:12;6.47;;;1.90;;
10174;SDS011;18221;38.704;0.152;2023-04-15T12:54:41;6.67;;;1.90;;
10174;SDS011;18221;38.704;0.152;2023-04-15T12:57:09;8.00;;;2.13;;
10174;SDS011;18221;38.704;0.152;2023-04-15T12:59:38;5.87;;;1.60;;
10174;SDS011;18221;38.704;0.152;2023-04-15T13:02:07;6.70;;;1.73;;
10174;SDS011;18221;38.704;0.152;2023-04-15T13:04:36;7.53;;;1.77;;
10174;SDS011;18221;38.704;0.152;2023-04-15T13:07:05;9.30;;;1.80;;
10174;SDS011;18221;38.704;0.152;2023-04-15T13:09:35;5.80;;;2.07;;
10174;SDS011;18221;38.704;0.152;2023-04-15T13:12:04;7.83;;;1.73;;
10174;SDS011;18221;38.704;0.152;2023-04-15T13:14:33;5.20;;;1.97;;
10174;SDS011;18221;38.704;0.152;2023-04-15T13:17:01;5.73;;;1.63;;
10174;SDS011;18221;38.704;0.152;2023-04-15T13:19:34;8.60;;;1.83;;
10174;SDS011;18221;38.704;0.152;2023-04-15T13:22:03;5.37;;;1.90;;
10174;SDS011;18221;38.704;0.152;2023-04-15T13:24:32;5.93;;;2.00;;
10174;SDS011;18221;38.704;0.152;2023-04-15T13:27:03;9.23;;;2.20;;
10174;SDS011;18221;38.704;0.152;2023-04-15T13:29:32;9.77;;;2.30;;
10174;SDS011;18221;38.704;0.152;2023-04-15T13:32:01;7.33;;;2.07;;
10174;SDS011;18221;38.704;0.152;2023-04-15T13:34:30;6.27;;;1.80;;
10174;SDS011;18221;38.704;0.152;2023-04-15T13:36:58;10.57;;;2.27;;
10174;SDS011;18221;38.704;0.152;2023-04-15T13:39:35;7.77;;;2.37;;
10174;SDS011;18221;38.704;0.152;2023-04-15T13:42:04;8.00;;;2.00;;
10174;SDS011;18221;38.704;0.152;2023-04-15T13:44:32;10.00;;;1.73;;
10174;SDS011;18221;38.704;0.152;2023-04-15T13:47:01;10.50;;;2.43;;
10174;SDS011;18221;38.704;0.152;2023-04-15T13:49:30;10.60;;;2.30;;
10174;SDS011;18221;38.704;0.152;2023-04-15T13:51:59;6.87;;;2.07;;
10174;SDS011;18221;38.704;0.152;2023-04-15T13:54:28;7.57;;;2.07;;
10174;SDS011;18221;38.704;0.152;2023-04-15T13:56:58;5.00;;;1.80;;
10174;SDS011;18221;38.704;0.152;2023-04-15T13:59:27;7.47;;;2.07;;
10174;SDS011;18221;38.704;0.152;2023-04-15T14:01:55;7.30;;;2.00;;
10174;SDS011;18221;38.704;0.152;2023-04-15T14:04:24;8.10;;;1.90;;
10174;SDS011;18221;38.704;0.152;2023-04-15T14:06:53;4.63;;;1.80;;
10174;SDS011;18221;38.704;0.152;2023-04-15T14:09:22;6.10;;;1.77;;
10174;SDS011;18221;38.704;0.152;2023-04-15T14:11:51;6.30;;;2.00;;
10174;SDS011;18221;38.704;0.152;2023-04-15T14:14:22;8.77;;;2.40;;
10174;SDS011;18221;38.704;0.152;2023-04-15T14:16:51;7.27;;;1.93;;
10174;SDS011;18221;38.704;0.152;2023-04-15T14:19:21;6.53;;;1.90;;
10174;SDS011;18221;38.704;0.152;2023-04-15T14:21:51;7.40;;;1.97;;
10174;SDS011;18221;38.704;0.152;2023-04-15T14:24:19;7.47;;;2.00;;
10174;SDS011;18221;38.704;0.152;2023-04-15T14:26:48;5.00;;;1.70;;
10174;SDS011;18221;38.704;0.152;2023-04-15T14:29:17;5.47;;;1.70;;
10174;SDS011;18221;38.704;0.152;2023-04-15T14:31:47;4.93;;;1.80;;
10174;SDS011;18221;38.704;0.152;2023-04-15T14:34:16;7.40;;;1.63;;
10174;SDS011;18221;38.704;0.152;2023-04-15T14:36:46;6.53;;;1.90;;
10174;SDS011;18221;38.704;0.152;2023-04-15T14:39:15;4.57;;;1.70;;
10174;SDS011;18221;38.704;0.152;2023-04-15T14:41:44;6.07;;;2.20;;
10174;SDS011;18221;38.704;0.152;2023-04-15T14:44:12;9.10;;;2.17;;
10174;SDS011;18221;38.704;0.152;2023-04-15T14:46:41;10.30;;;2.17;;
10174;SDS011;18221;38.704;0.152;2023-04-15T14:49:11;5.93;;;1.97;;
10174;SDS011;18221;38.704;0.152;2023-04-15T14:51:40;4.30;;;1.60;;
10174;SDS011;18221;38.704;0.152;2023-04-15T14:54:10;6.23;;;1.97;;
10174;SDS011;18221;38.704;0.152;2023-04-15T14:56:39;5.77;;;2.00;;
10174;SDS011;18221;38.704;0.152;2023-04-15T14:59:08;7.93;;;1.90;;
10174;SDS011;18221;38.704;0.152;2023-04-15T15:01:37;7.00;;;1.70;;
10174;SDS011;18221;38.704;0.152;2023-04-15T15:04:06;8.47;;;1.70;;
10174;SDS011;18221;38.704;0.152;2023-04-15T15:06:38;5.73;;;1.70;;
10174;SDS011;18221;38.704;0.152;2023-04-15T15:09:07;7.10;;;1.93;;
10174;SDS011;18221;38.704;0.152;2023-04-15T15:11:36;7.20;;;1.83;;
10174;SDS011;18221;38.704;0.152;2023-04-15T15:14:05;6.77;;;1.67;;
10174;SDS011;18221;38.704;0.152;2023-04-15T15:16:33;5.00;;;1.73;;
10174;SDS011;18221;38.704;0.152;2023-04-15T15:19:03;6.63;;;1.60;;